sensor_id;sensor_type;location;lat;lon;timestamp;P1;durP1;ratioP1;P2;durP2;ratioP2
46845;SDS011;33947;46.804;134.252;2023-05-24T08:01:12;7.78;;;3.78;;
46845;SDS011;33947;46.804;134.252;2023-05-24T08:04:17;9.20;;;3.60;;
46845;SDS011;33947;46.804;134.252;2023-05-24T08:07:23;6.53;;;3.63;;
46845;SDS011;33947;46.804;134.252;2023-05-24T08:10:30;11.00;;;3.92;;
46845;SDS011;33947;46.804;134.252;2023-05-24T08:13:37;10.18;;;3.78;;
46845;SDS011;33947;46.804;134.252;2023-05-24T08:16:41;11.60;;;4.00;;
46845;SDS011;33947;46.804;134.252;2023-05-24T08:19:45;10.02;;;3.72;;
46845;SDS011;33947;46.804;134.252;2023-05-24T08:22:52;12.35;;;4.30;;
46845;SDS011;33947;46.804;134.252;2023-05-24T08:31:24;5.95;;;3.97;;
46845;SDS011;33947;46.804;134.252;2023-05-24T08:37:33;8.40;;;4.07;;
46845;SDS011;33947;46.804;134.252;2023-05-24T08:40:37;8.73;;;4.20;;
46845;SDS011;33947;46.804;134.252;2023-05-24T08:43:41;10.85;;;3.80;;
46845;SDS011;33947;46.804;134.252;2023-05-24T08:46:48;9.57;;;4.28;;
46845;SDS011;33947;46.804;134.252;2023-05-24T08:49:53;8.00;;;4.03;;
46845;SDS011;33947;46.804;134.252;2023-05-24T08:52:58;6.05;;;3.75;;
46845;SDS011;33947;46.804;134.252;2023-05-24T08:56:05;10.05;;;3.92;;
46845;SDS011;33947;46.804;134.252;2023-05-24T08:59:14;6.88;;;3.78;;
46845;SDS011;33947;46.804;134.252;2023-05-24T09:02:20;11.15;;;4.50;;
46845;SDS011;33947;46.804;134.252;2023-05-24T09:05:25;10.85;;;4.28;;
46845;SDS011;33947;46.804;134.252;2023-05-24T09:08:31;5.95;;;3.75;;
46845;SDS011;33947;46.804;134.252;2023-05-24T09:11:37;6.82;;;3.78;;
46845;SDS011;33947;46.804;134.252;2023-05-24T09:14:45;11.27;;;4.20;;
46845;SDS011;33947;46.804;134.252;2023-05-24T09:17:49;9.00;;;3.75;;
46845;SDS011;33947;46.804;134.252;2023-05-24T09:20:54;9.73;;;4.03;;
46845;SDS011;33947;46.804;134.252;2023-05-24T09:23:58;8.57;;;4.13;;
46845;SDS011;33947;46.804;134.252;2023-05-24T09:27:06;9.60;;;3.73;;
46845;SDS011;33947;46.804;134.252;2023-05-24T09:30:10;7.40;;;4.25;;
46845;SDS011;33947;46.804;134.252;2023-05-24T09:33:15;18.48;;;7.88;;
46845;SDS011;33947;46.804;134.252;2023-05-24T09:36:20;17.10;;;4.10;;
46845;SDS011;33947;46.804;134.252;2023-05-24T09:39:24;10.02;;;4.40;;
46845;SDS011;33947;46.804;134.252;2023-05-24T09:42:28;7.97;;;4.50;;
46845;SDS011;33947;46.804;134.252;2023-05-24T09:45:37;6.15;;;3.95;;
46845;SDS011;33947;46.804;134.252;2023-05-24T09:48:56;13.30;;;3.88;;
46845;SDS011;33947;46.804;134.252;2023-05-24T09:52:01;7.28;;;3.85;;
46845;SDS011;33947;46.804;134.252;2023-05-24T09:55:16;17.70;;;4.57;;
46845;SDS011;33947;46.804;134.252;2023-05-24T09:58:21;14.65;;;4.20;;
46845;SDS011;33947;46.804;134.252;2023-05-24T10:01:31;28.48;;;18.63;;
46845;SDS011;33947;46.804;134.252;2023-05-24T10:04:36;15.38;;;7.55;;
46845;SDS011;33947;46.804;134.252;2023-05-24T10:07:41;13.30;;;6.55;;
46845;SDS011;33947;46.804;134.252;2023-05-24T10:10:46;25.48;;;7.75;;
46845;SDS011;33947;46.804;134.252;2023-05-24T10:13:50;11.00;;;4.90;;
46845;SDS011;33947;46.804;134.252;2023-05-24T10:16:55;14.48;;;5.55;;
46845;SDS011;33947;46.804;134.252;2023-05-24T10:20:01;16.25;;;4.97;;
46845;SDS011;33947;46.804;134.252;2023-05-24T10:23:12;19.77;;;4.53;;
46845;SDS011;33947;46.804;134.252;2023-05-24T10:26:21;22.85;;;5.25;;
46845;SDS011;33947;46.804;134.252;2023-05-24T10:33:02;13.10;;;6.25;;
46845;SDS011;33947;46.804;134.252;2023-05-24T10:36:11;12.02;;;4.93;;
46845;SDS011;33947;46.804;134.252;2023-05-24T10:39:21;18.88;;;5.57;;
46845;SDS011;33947;46.804;134.252;2023-05-24T10:42:29;24.08;;;6.00;;
46845;SDS011;33947;46.804;134.252;2023-05-24T10:45:38;27.48;;;5.53;;
46845;SDS011;33947;46.804;134.252;2023-05-24T10:48:58;50.17;;;7.65;;
46845;SDS011;33947;46.804;134.252;2023-05-24T10:52:07;37.22;;;8.07;;
46845;SDS011;33947;46.804;134.252;2023-05-24T10:55:12;29.55;;;6.50;;
46845;SDS011;33947;46.804;134.252;2023-05-24T10:58:22;29.23;;;8.35;;
46845;SDS011;33947;46.804;134.252;2023-05-24T11:02:01;26.52;;;7.30;;
46845;SDS011;33947;46.804;134.252;2023-05-24T11:05:11;30.17;;;7.38;;
46845;SDS011;33947;46.804;134.252;2023-05-24T11:08:30;33.38;;;10.02;;
46845;SDS011;33947;46.804;134.252;2023-05-24T11:11:37;17.50;;;8.07;;
46845;SDS011;33947;46.804;134.252;2023-05-24T11:14:45;21.13;;;7.10;;
46845;SDS011;33947;46.804;134.252;2023-05-24T11:21:32;18.05;;;5.95;;
46845;SDS011;33947;46.804;134.252;2023-05-24T11:24:40;23.65;;;5.97;;
46845;SDS011;33947;46.804;134.252;2023-05-24T11:27:51;22.75;;;5.97;;
46845;SDS011;33947;46.804;134.252;2023-05-24T11:30:56;22.60;;;5.97;;
46845;SDS011;33947;46.804;134.252;2023-05-24T11:34:10;13.60;;;4.97;;
46845;SDS011;33947;46.804;134.252;2023-05-24T11:37:16;11.63;;;6.17;;
46845;SDS011;33947;46.804;134.252;2023-05-24T11:40:30;16.63;;;6.03;;
46845;SDS011;33947;46.804;134.252;2023-05-24T11:43:35;16.23;;;7.57;;
46845;SDS011;33947;46.804;134.252;2023-05-24T11:46:40;12.73;;;6.53;;
46845;SDS011;33947;46.804;134.252;2023-05-24T11:49:52;18.83;;;8.68;;
46845;SDS011;33947;46.804;134.252;2023-05-24T11:53:02;13.63;;;7.03;;
46845;SDS011;33947;46.804;134.252;2023-05-24T11:56:09;14.20;;;7.05;;
46845;SDS011;33947;46.804;134.252;2023-05-24T11:59:20;22.70;;;7.68;;
46845;SDS011;33947;46.804;134.252;2023-05-24T12:02:30;16.30;;;7.95;;
46845;SDS011;33947;46.804;134.252;2023-05-24T12:05:38;15.95;;;6.45;;
46845;SDS011;33947;46.804;134.252;2023-05-24T12:08:45;9.43;;;5.55;;
46845;SDS011;33947;46.804;134.252;2023-05-24T12:14:54;17.95;;;7.18;;
46845;SDS011;33947;46.804;134.252;2023-05-24T12:17:59;23.13;;;6.20;;
46845;SDS011;33947;46.804;134.252;2023-05-24T12:21:08;21.50;;;5.53;;
46845;SDS011;33947;46.804;134.252;2023-05-24T12:24:16;10.48;;;4.68;;
46845;SDS011;33947;46.804;134.252;2023-05-24T12:27:26;9.77;;;4.03;;
46845;SDS011;33947;46.804;134.252;2023-05-24T12:30:35;7.03;;;3.67;;
46845;SDS011;33947;46.804;134.252;2023-05-24T12:33:48;13.27;;;4.25;;
46845;SDS011;33947;46.804;134.252;2023-05-24T12:36:56;11.70;;;4.45;;
46845;SDS011;33947;46.804;134.252;2023-05-24T12:40:15;7.25;;;3.92;;
46845;SDS011;33947;46.804;134.252;2023-05-24T12:43:23;11.65;;;4.00;;
46845;SDS011;33947;46.804;134.252;2023-05-24T12:46:30;12.63;;;4.30;;
46845;SDS011;33947;46.804;134.252;2023-05-24T12:49:38;8.82;;;4.05;;
46845;SDS011;33947;46.804;134.252;2023-05-24T12:52:46;8.68;;;4.00;;
46845;SDS011;33947;46.804;134.252;2023-05-24T12:56:03;9.02;;;4.03;;
46845;SDS011;33947;46.804;134.252;2023-05-24T13:02:12;9.35;;;4.15;;
46845;SDS011;33947;46.804;134.252;2023-05-24T13:05:16;10.68;;;4.30;;
46845;SDS011;33947;46.804;134.252;2023-05-24T13:08:27;14.02;;;4.07;;
46845;SDS011;33947;46.804;134.252;2023-05-24T13:11:35;10.75;;;3.85;;
46845;SDS011;33947;46.804;134.252;2023-05-24T13:14:42;14.18;;;4.32;;
46845;SDS011;33947;46.804;134.252;2023-05-24T13:17:46;7.72;;;3.58;;
46845;SDS011;33947;46.804;134.252;2023-05-24T13:20:58;8.32;;;3.53;;
46845;SDS011;33947;46.804;134.252;2023-05-24T13:24:02;8.82;;;4.22;;
46845;SDS011;33947;46.804;134.252;2023-05-24T13:27:08;7.53;;;3.75;;
46845;SDS011;33947;46.804;134.252;2023-05-24T13:30:13;11.95;;;4.50;;
46845;SDS011;33947;46.804;134.252;2023-05-24T13:33:19;8.40;;;3.60;;
46845;SDS011;33947;46.804;134.252;2023-05-24T13:36:24;14.18;;;4.20;;
46845;SDS011;33947;46.804;134.252;2023-05-24T13:39:28;10.23;;;4.10;;
46845;SDS011;33947;46.804;134.252;2023-05-24T13:42:33;7.22;;;3.65;;
46845;SDS011;33947;46.804;134.252;2023-05-24T13:45:38;7.13;;;4.07;;
46845;SDS011;33947;46.804;134.252;2023-05-24T13:48:42;7.70;;;3.77;;
46845;SDS011;33947;46.804;134.252;2023-05-24T13:51:47;8.85;;;3.72;;
46845;SDS011;33947;46.804;134.252;2023-05-24T13:54:57;9.65;;;3.85;;
46845;SDS011;33947;46.804;134.252;2023-05-24T13:58:04;5.95;;;3.78;;
46845;SDS011;33947;46.804;134.252;2023-05-24T14:01:12;5.18;;;3.50;;
46845;SDS011;33947;46.804;134.252;2023-05-24T14:04:16;8.85;;;4.18;;
46845;SDS011;33947;46.804;134.252;2023-05-24T14:07:20;6.72;;;3.85;;
46845;SDS011;33947;46.804;134.252;2023-05-24T14:13:29;10.23;;;4.55;;
46845;SDS011;33947;46.804;134.252;2023-05-24T14:16:54;6.22;;;3.63;;
46845;SDS011;33947;46.804;134.252;2023-05-24T14:19:59;7.30;;;4.05;;
46845;SDS011;33947;46.804;134.252;2023-05-24T14:23:06;7.85;;;3.90;;
46845;SDS011;33947;46.804;134.252;2023-05-24T14:26:11;12.52;;;3.72;;
46845;SDS011;33947;46.804;134.252;2023-05-24T14:29:15;9.27;;;3.55;;
46845;SDS011;33947;46.804;134.252;2023-05-24T14:35:28;6.63;;;3.70;;
46845;SDS011;33947;46.804;134.252;2023-05-24T14:38:32;7.22;;;3.83;;
46845;SDS011;33947;46.804;134.252;2023-05-24T14:41:37;17.33;;;3.77;;
46845;SDS011;33947;46.804;134.252;2023-05-24T14:44:41;7.28;;;3.40;;
46845;SDS011;33947;46.804;134.252;2023-05-24T14:47:47;8.68;;;3.55;;
46845;SDS011;33947;46.804;134.252;2023-05-24T14:50:51;7.10;;;3.63;;
46845;SDS011;33947;46.804;134.252;2023-05-24T14:53:55;5.93;;;3.55;;
46845;SDS011;33947;46.804;134.252;2023-05-24T14:57:02;10.05;;;3.90;;
46845;SDS011;33947;46.804;134.252;2023-05-24T15:00:06;6.80;;;3.97;;
46845;SDS011;33947;46.804;134.252;2023-05-24T15:03:12;8.38;;;3.45;;
46845;SDS011;33947;46.804;134.252;2023-05-24T15:06:17;10.00;;;4.13;;
46845;SDS011;33947;46.804;134.252;2023-05-24T15:09:22;9.68;;;3.80;;
46845;SDS011;33947;46.804;134.252;2023-05-24T15:12:26;6.28;;;3.60;;
46845;SDS011;33947;46.804;134.252;2023-05-24T15:15:30;5.97;;;3.30;;
46845;SDS011;33947;46.804;134.252;2023-05-24T15:18:34;8.55;;;3.60;;
46845;SDS011;33947;46.804;134.252;2023-05-24T15:21:38;7.72;;;3.55;;
46845;SDS011;33947;46.804;134.252;2023-05-24T15:24:42;6.78;;;3.50;;
46845;SDS011;33947;46.804;134.252;2023-05-24T15:27:47;9.15;;;4.18;;
46845;SDS011;33947;46.804;134.252;2023-05-24T15:30:51;10.70;;;4.40;;
46845;SDS011;33947;46.804;134.252;2023-05-24T15:33:58;8.57;;;4.10;;
46845;SDS011;33947;46.804;134.252;2023-05-24T15:37:03;11.63;;;4.00;;
46845;SDS011;33947;46.804;134.252;2023-05-24T15:40:08;8.90;;;3.95;;
46845;SDS011;33947;46.804;134.252;2023-05-24T15:43:16;15.45;;;4.35;;
46845;SDS011;33947;46.804;134.252;2023-05-24T15:46:21;9.15;;;4.20;;
46845;SDS011;33947;46.804;134.252;2023-05-24T15:49:25;9.60;;;3.90;;
46845;SDS011;33947;46.804;134.252;2023-05-24T15:52:30;10.52;;;4.65;;
46845;SDS011;33947;46.804;134.252;2023-05-24T15:55:34;13.77;;;4.75;;
46845;SDS011;33947;46.804;134.252;2023-05-24T15:58:39;7.20;;;4.47;;
46845;SDS011;33947;46.804;134.252;2023-05-24T16:01:43;9.02;;;3.75;;
46845;SDS011;33947;46.804;134.252;2023-05-24T16:04:47;9.30;;;4.32;;
46845;SDS011;33947;46.804;134.252;2023-05-24T16:07:52;11.15;;;3.95;;
46845;SDS011;33947;46.804;134.252;2023-05-24T16:10:56;11.68;;;3.70;;
46845;SDS011;33947;46.804;134.252;2023-05-24T16:14:01;14.00;;;4.27;;
46845;SDS011;33947;46.804;134.252;2023-05-24T16:17:05;7.38;;;4.22;;
46845;SDS011;33947;46.804;134.252;2023-05-24T16:20:10;10.60;;;3.60;;
46845;SDS011;33947;46.804;134.252;2023-05-24T16:23:17;10.45;;;4.50;;
46845;SDS011;33947;46.804;134.252;2023-05-24T16:26:28;8.23;;;4.32;;
46845;SDS011;33947;46.804;134.252;2023-05-24T16:29:35;10.60;;;3.65;;
46845;SDS011;33947;46.804;134.252;2023-05-24T16:32:40;9.77;;;4.28;;
46845;SDS011;33947;46.804;134.252;2023-05-24T16:35:47;8.45;;;3.60;;
46845;SDS011;33947;46.804;134.252;2023-05-24T16:38:57;11.88;;;4.13;;
46845;SDS011;33947;46.804;134.252;2023-05-24T16:42:01;11.40;;;3.90;;
46845;SDS011;33947;46.804;134.252;2023-05-24T16:45:06;8.05;;;3.85;;
46845;SDS011;33947;46.804;134.252;2023-05-24T16:48:11;11.30;;;3.95;;
46845;SDS011;33947;46.804;134.252;2023-05-24T16:51:17;8.02;;;4.18;;
46845;SDS011;33947;46.804;134.252;2023-05-24T16:54:21;10.27;;;4.47;;
46845;SDS011;33947;46.804;134.252;2023-05-24T16:57:24;10.50;;;3.85;;
46845;SDS011;33947;46.804;134.252;2023-05-24T17:00:29;7.80;;;4.05;;
46845;SDS011;33947;46.804;134.252;2023-05-24T17:03:33;9.35;;;3.80;;
46845;SDS011;33947;46.804;134.252;2023-05-24T17:06:37;7.23;;;4.07;;
46845;SDS011;33947;46.804;134.252;2023-05-24T17:09:41;13.98;;;4.20;;
46845;SDS011;33947;46.804;134.252;2023-05-24T17:12:46;10.27;;;4.32;;
46845;SDS011;33947;46.804;134.252;2023-05-24T17:15:50;11.07;;;4.30;;
46845;SDS011;33947;46.804;134.252;2023-05-24T17:18:55;9.75;;;4.20;;
46845;SDS011;33947;46.804;134.252;2023-05-24T17:21:59;12.95;;;4.05;;
46845;SDS011;33947;46.804;134.252;2023-05-24T17:25:04;6.63;;;4.07;;
46845;SDS011;33947;46.804;134.252;2023-05-24T17:28:09;9.77;;;4.30;;
46845;SDS011;33947;46.804;134.252;2023-05-24T17:31:13;8.73;;;3.95;;
46845;SDS011;33947;46.804;134.252;2023-05-24T17:37:21;9.90;;;4.45;;
46845;SDS011;33947;46.804;134.252;2023-05-24T17:40:26;10.82;;;4.13;;
46845;SDS011;33947;46.804;134.252;2023-05-24T17:43:30;8.38;;;4.10;;
46845;SDS011;33947;46.804;134.252;2023-05-24T17:46:35;7.43;;;4.13;;
46845;SDS011;33947;46.804;134.252;2023-05-24T17:49:43;7.50;;;3.97;;
46845;SDS011;33947;46.804;134.252;2023-05-24T17:52:47;9.68;;;4.25;;
46845;SDS011;33947;46.804;134.252;2023-05-24T17:55:51;8.65;;;4.70;;
46845;SDS011;33947;46.804;134.252;2023-05-24T17:58:55;8.93;;;4.22;;
46845;SDS011;33947;46.804;134.252;2023-05-24T18:01:59;8.25;;;4.63;;
46845;SDS011;33947;46.804;134.252;2023-05-24T18:05:03;9.85;;;4.20;;
46845;SDS011;33947;46.804;134.252;2023-05-24T18:08:09;8.60;;;4.22;;
46845;SDS011;33947;46.804;134.252;2023-05-24T18:11:13;7.80;;;4.47;;
46845;SDS011;33947;46.804;134.252;2023-05-24T18:14:18;7.40;;;3.88;;
46845;SDS011;33947;46.804;134.252;2023-05-24T18:17:22;7.03;;;3.92;;
46845;SDS011;33947;46.804;134.252;2023-05-24T18:20:26;10.00;;;4.93;;
46845;SDS011;33947;46.804;134.252;2023-05-24T18:23:37;10.82;;;4.63;;
46845;SDS011;33947;46.804;134.252;2023-05-24T18:26:41;9.88;;;4.50;;
46845;SDS011;33947;46.804;134.252;2023-05-24T18:29:48;10.35;;;4.20;;
46845;SDS011;33947;46.804;134.252;2023-05-24T18:32:55;11.25;;;4.50;;
46845;SDS011;33947;46.804;134.252;2023-05-24T18:36:09;11.52;;;4.22;;
46845;SDS011;33947;46.804;134.252;2023-05-24T18:39:17;9.90;;;4.43;;
46845;SDS011;33947;46.804;134.252;2023-05-24T18:42:21;7.85;;;4.22;;
46845;SDS011;33947;46.804;134.252;2023-05-24T18:45:25;9.37;;;5.30;;
46845;SDS011;33947;46.804;134.252;2023-05-24T18:48:29;10.55;;;4.40;;
46845;SDS011;33947;46.804;134.252;2023-05-24T18:51:33;7.22;;;4.43;;
46845;SDS011;33947;46.804;134.252;2023-05-24T18:54:38;9.48;;;4.60;;
46845;SDS011;33947;46.804;134.252;2023-05-24T18:57:42;10.68;;;4.57;;
46845;SDS011;33947;46.804;134.252;2023-05-24T19:00:46;11.13;;;4.43;;
46845;SDS011;33947;46.804;134.252;2023-05-24T19:03:51;8.20;;;4.43;;
46845;SDS011;33947;46.804;134.252;2023-05-24T19:06:55;8.75;;;4.40;;
46845;SDS011;33947;46.804;134.252;2023-05-24T19:09:59;9.90;;;4.47;;
46845;SDS011;33947;46.804;134.252;2023-05-24T19:13:05;13.82;;;5.00;;
46845;SDS011;33947;46.804;134.252;2023-05-24T19:16:09;8.35;;;4.22;;
46845;SDS011;33947;46.804;134.252;2023-05-24T19:19:19;8.77;;;4.50;;
46845;SDS011;33947;46.804;134.252;2023-05-24T19:22:23;7.93;;;4.82;;
46845;SDS011;33947;46.804;134.252;2023-05-24T19:25:30;8.70;;;4.55;;
46845;SDS011;33947;46.804;134.252;2023-05-24T19:28:43;13.25;;;4.80;;
46845;SDS011;33947;46.804;134.252;2023-05-24T19:31:52;6.50;;;4.13;;
46845;SDS011;33947;46.804;134.252;2023-05-24T19:34:59;11.00;;;4.75;;
46845;SDS011;33947;46.804;134.252;2023-05-24T19:38:05;8.10;;;4.95;;
46845;SDS011;33947;46.804;134.252;2023-05-24T19:41:09;8.65;;;4.63;;
46845;SDS011;33947;46.804;134.252;2023-05-24T19:44:13;9.40;;;4.43;;
46845;SDS011;33947;46.804;134.252;2023-05-24T19:47:18;8.25;;;4.95;;
46845;SDS011;33947;46.804;134.252;2023-05-24T19:50:22;11.90;;;4.65;;
46845;SDS011;33947;46.804;134.252;2023-05-24T19:53:27;12.60;;;4.70;;
46845;SDS011;33947;46.804;134.252;2023-05-24T19:56:31;10.88;;;4.88;;
46845;SDS011;33947;46.804;134.252;2023-05-24T19:59:35;11.00;;;4.80;;
46845;SDS011;33947;46.804;134.252;2023-05-24T20:02:39;8.43;;;4.57;;
46845;SDS011;33947;46.804;134.252;2023-05-24T20:05:43;8.82;;;4.70;;
46845;SDS011;33947;46.804;134.252;2023-05-24T20:08:47;9.30;;;4.80;;
46845;SDS011;33947;46.804;134.252;2023-05-24T20:11:51;9.60;;;5.50;;
46845;SDS011;33947;46.804;134.252;2023-05-24T20:14:55;11.05;;;4.53;;
46845;SDS011;33947;46.804;134.252;2023-05-24T20:17:59;7.53;;;4.45;;
46845;SDS011;33947;46.804;134.252;2023-05-24T20:21:07;10.07;;;4.78;;
46845;SDS011;33947;46.804;134.252;2023-05-24T20:24:11;8.85;;;4.95;;
46845;SDS011;33947;46.804;134.252;2023-05-24T20:27:16;8.50;;;4.53;;
46845;SDS011;33947;46.804;134.252;2023-05-24T20:30:20;8.80;;;4.55;;
46845;SDS011;33947;46.804;134.252;2023-05-24T20:33:25;8.20;;;4.95;;
46845;SDS011;33947;46.804;134.252;2023-05-24T20:36:29;11.27;;;4.85;;
46845;SDS011;33947;46.804;134.252;2023-05-24T20:39:34;7.72;;;4.45;;
46845;SDS011;33947;46.804;134.252;2023-05-24T20:42:39;9.43;;;4.65;;
46845;SDS011;33947;46.804;134.252;2023-05-24T20:45:43;13.50;;;5.10;;
46845;SDS011;33947;46.804;134.252;2023-05-24T20:48:47;10.05;;;4.43;;
46845;SDS011;33947;46.804;134.252;2023-05-24T20:51:52;12.63;;;4.97;;
46845;SDS011;33947;46.804;134.252;2023-05-24T20:54:56;9.30;;;4.28;;
46845;SDS011;33947;46.804;134.252;2023-05-24T20:58:00;8.95;;;4.30;;
46845;SDS011;33947;46.804;134.252;2023-05-24T21:01:04;9.15;;;4.63;;
46845;SDS011;33947;46.804;134.252;2023-05-24T21:07:14;14.57;;;5.18;;
46845;SDS011;33947;46.804;134.252;2023-05-24T21:10:18;13.32;;;4.68;;
46845;SDS011;33947;46.804;134.252;2023-05-24T21:13:22;11.90;;;4.80;;
46845;SDS011;33947;46.804;134.252;2023-05-24T21:16:27;12.63;;;4.70;;
46845;SDS011;33947;46.804;134.252;2023-05-24T21:19:31;10.35;;;4.30;;
46845;SDS011;33947;46.804;134.252;2023-05-24T21:26:07;17.48;;;4.88;;
46845;SDS011;33947;46.804;134.252;2023-05-24T21:29:11;9.50;;;4.25;;
46845;SDS011;33947;46.804;134.252;2023-05-24T21:32:15;8.82;;;4.53;;
46845;SDS011;33947;46.804;134.252;2023-05-24T21:35:19;11.40;;;4.53;;
46845;SDS011;33947;46.804;134.252;2023-05-24T21:38:23;8.52;;;4.80;;
46845;SDS011;33947;46.804;134.252;2023-05-24T21:41:28;9.98;;;4.63;;
46845;SDS011;33947;46.804;134.252;2023-05-24T21:44:35;8.65;;;4.43;;
46845;SDS011;33947;46.804;134.252;2023-05-24T21:47:40;9.35;;;4.20;;
46845;SDS011;33947;46.804;134.252;2023-05-24T21:50:45;8.85;;;4.72;;
46845;SDS011;33947;46.804;134.252;2023-05-24T21:53:51;11.68;;;5.38;;
46845;SDS011;33947;46.804;134.252;2023-05-24T21:56:55;14.60;;;4.53;;
46845;SDS011;33947;46.804;134.252;2023-05-24T22:00:00;14.13;;;4.63;;
46845;SDS011;33947;46.804;134.252;2023-05-24T22:03:07;15.00;;;4.72;;
46845;SDS011;33947;46.804;134.252;2023-05-24T22:06:13;16.00;;;4.93;;
46845;SDS011;33947;46.804;134.252;2023-05-24T22:09:17;13.02;;;4.30;;
46845;SDS011;33947;46.804;134.252;2023-05-24T22:12:26;27.55;;;5.70;;
46845;SDS011;33947;46.804;134.252;2023-05-24T22:15:30;14.02;;;4.50;;
46845;SDS011;33947;46.804;134.252;2023-05-24T22:18:34;16.25;;;5.07;;
46845;SDS011;33947;46.804;134.252;2023-05-24T22:21:38;17.65;;;5.43;;
46845;SDS011;33947;46.804;134.252;2023-05-24T22:24:45;11.43;;;4.00;;
46845;SDS011;33947;46.804;134.252;2023-05-24T22:27:50;13.60;;;4.20;;
46845;SDS011;33947;46.804;134.252;2023-05-24T22:30:57;8.95;;;4.13;;
46845;SDS011;33947;46.804;134.252;2023-05-24T22:34:01;6.43;;;4.20;;
46845;SDS011;33947;46.804;134.252;2023-05-24T22:37:05;6.22;;;3.70;;
46845;SDS011;33947;46.804;134.252;2023-05-24T22:40:09;22.45;;;4.00;;
46845;SDS011;33947;46.804;134.252;2023-05-24T22:43:14;15.50;;;4.30;;
46845;SDS011;33947;46.804;134.252;2023-05-24T22:46:18;22.27;;;4.57;;
46845;SDS011;33947;46.804;134.252;2023-05-24T22:49:24;12.23;;;4.20;;
46845;SDS011;33947;46.804;134.252;2023-05-24T22:52:31;13.52;;;3.78;;
46845;SDS011;33947;46.804;134.252;2023-05-24T22:55:38;19.92;;;4.57;;
46845;SDS011;33947;46.804;134.252;2023-05-24T22:58:45;7.57;;;3.60;;
46845;SDS011;33947;46.804;134.252;2023-05-24T23:01:49;12.47;;;3.83;;
46845;SDS011;33947;46.804;134.252;2023-05-24T23:04:53;9.52;;;4.53;;
46845;SDS011;33947;46.804;134.252;2023-05-24T23:08:02;12.27;;;3.78;;
46845;SDS011;33947;46.804;134.252;2023-05-24T23:11:06;11.45;;;3.45;;
46845;SDS011;33947;46.804;134.252;2023-05-24T23:14:18;10.50;;;4.15;;
46845;SDS011;33947;46.804;134.252;2023-05-24T23:17:22;10.27;;;3.70;;
46845;SDS011;33947;46.804;134.252;2023-05-24T23:20:31;15.45;;;4.25;;
46845;SDS011;33947;46.804;134.252;2023-05-24T23:23:44;10.50;;;4.60;;
46845;SDS011;33947;46.804;134.252;2023-05-24T23:26:51;12.32;;;3.55;;
46845;SDS011;33947;46.804;134.252;2023-05-24T23:30:00;5.70;;;3.20;;
46845;SDS011;33947;46.804;134.252;2023-05-24T23:33:05;10.20;;;3.78;;
46845;SDS011;33947;46.804;134.252;2023-05-24T23:36:11;12.20;;;4.10;;
46845;SDS011;33947;46.804;134.252;2023-05-24T23:39:18;5.82;;;3.22;;
46845;SDS011;33947;46.804;134.252;2023-05-24T23:42:22;12.23;;;4.03;;
46845;SDS011;33947;46.804;134.252;2023-05-24T23:45:26;10.07;;;3.43;;
46845;SDS011;33947;46.804;134.252;2023-05-24T23:48:30;10.27;;;3.70;;
46845;SDS011;33947;46.804;134.252;2023-05-24T23:51:34;14.45;;;4.55;;
46845;SDS011;33947;46.804;134.252;2023-05-24T23:54:38;14.07;;;3.63;;
46845;SDS011;33947;46.804;134.252;2023-05-24T23:57:45;16.85;;;4.35;;
